sensor_id;sensor_type;location;lat;lon;timestamp;temperature;humidity
24902;DHT22;31328;51.402;0.016;2023-04-24T00:00:44;10.20;99.90
24902;DHT22;31328;51.402;0.016;2023-04-24T00:03:11;10.20;99.90
24902;DHT22;31328;51.402;0.016;2023-04-24T00:05:38;10.20;99.90
24902;DHT22;31328;51.402;0.016;2023-04-24T00:08:06;10.10;99.90
24902;DHT22;31328;51.402;0.016;2023-04-24T00:10:32;10.20;99.90
24902;DHT22;31328;51.402;0.016;2023-04-24T00:12:58;10.10;99.90
24902;DHT22;31328;51.402;0.016;2023-04-24T00:15:25;10.10;99.90
24902;DHT22;31328;51.402;0.016;2023-04-24T00:17:51;10.10;99.90
24902;DHT22;31328;51.402;0.016;2023-04-24T00:20:19;10.10;99.90
24902;DHT22;31328;51.402;0.016;2023-04-24T00:22:45;10.10;99.90
24902;DHT22;31328;51.402;0.016;2023-04-24T00:25:12;10.10;99.90
24902;DHT22;31328;51.402;0.016;2023-04-24T00:27:38;10.20;99.90
24902;DHT22;31328;51.402;0.016;2023-04-24T00:30:05;10.10;99.90
24902;DHT22;31328;51.402;0.016;2023-04-24T00:32:32;10.10;99.90
24902;DHT22;31328;51.402;0.016;2023-04-24T00:34:58;10.20;99.90
24902;DHT22;31328;51.402;0.016;2023-04-24T00:37:24;10.10;99.90
24902;DHT22;31328;51.402;0.016;2023-04-24T00:39:51;10.10;99.90
24902;DHT22;31328;51.402;0.016;2023-04-24T00:42:17;10.10;99.90
24902;DHT22;31328;51.402;0.016;2023-04-24T00:44:44;10.10;99.90
24902;DHT22;31328;51.402;0.016;2023-04-24T00:47:11;10.20;99.90
24902;DHT22;31328;51.402;0.016;2023-04-24T00:49:38;10.10;99.90
24902;DHT22;31328;51.402;0.016;2023-04-24T00:52:05;10.20;99.90
24902;DHT22;31328;51.402;0.016;2023-04-24T00:54:35;10.20;99.90
24902;DHT22;31328;51.402;0.016;2023-04-24T00:57:03;10.10;99.90
24902;DHT22;31328;51.402;0.016;2023-04-24T00:59:30;10.10;99.90
24902;DHT22;31328;51.402;0.016;2023-04-24T01:01:57;10.10;99.90
24902;DHT22;31328;51.402;0.016;2023-04-24T01:04:24;10.10;99.90
24902;DHT22;31328;51.402;0.016;2023-04-24T01:06:50;10.10;99.90
24902;DHT22;31328;51.402;0.016;2023-04-24T01:09:18;10.10;99.90
24902;DHT22;31328;51.402;0.016;2023-04-24T01:11:45;10.00;99.90
24902;DHT22;31328;51.402;0.016;2023-04-24T01:14:11;10.10;99.90
24902;DHT22;31328;51.402;0.016;2023-04-24T01:16:38;10.00;99.90
24902;DHT22;31328;51.402;0.016;2023-04-24T01:19:07;10.00;99.90
24902;DHT22;31328;51.402;0.016;2023-04-24T01:21:37;10.10;99.90
24902;DHT22;31328;51.402;0.016;2023-04-24T01:24:04;10.10;99.90
24902;DHT22;31328;51.402;0.016;2023-04-24T01:26:31;10.10;99.90
24902;DHT22;31328;51.402;0.016;2023-04-24T01:28:57;10.00;99.90
24902;DHT22;31328;51.402;0.016;2023-04-24T01:31:24;10.00;99.90
24902;DHT22;31328;51.402;0.016;2023-04-24T01:33:51;10.00;99.90
24902;DHT22;31328;51.402;0.016;2023-04-24T01:36:18;10.00;99.90
24902;DHT22;31328;51.402;0.016;2023-04-24T01:38:45;10.00;99.90
24902;DHT22;31328;51.402;0.016;2023-04-24T01:41:11;10.00;99.90
24902;DHT22;31328;51.402;0.016;2023-04-24T01:43:37;10.00;99.90
24902;DHT22;31328;51.402;0.016;2023-04-24T01:46:04;10.00;99.90
24902;DHT22;31328;51.402;0.016;2023-04-24T01:48:31;10.00;99.90
24902;DHT22;31328;51.402;0.016;2023-04-24T01:50:57;10.00;99.90
24902;DHT22;31328;51.402;0.016;2023-04-24T01:53:24;10.00;99.90
24902;DHT22;31328;51.402;0.016;2023-04-24T01:55:51;10.00;99.90
24902;DHT22;31328;51.402;0.016;2023-04-24T01:58:17;9.90;99.90
24902;DHT22;31328;51.402;0.016;2023-04-24T02:00:43;9.90;99.90
24902;DHT22;31328;51.402;0.016;2023-04-24T02:03:09;9.90;99.90
24902;DHT22;31328;51.402;0.016;2023-04-24T02:05:36;9.90;99.90
24902;DHT22;31328;51.402;0.016;2023-04-24T02:08:03;9.90;99.90
24902;DHT22;31328;51.402;0.016;2023-04-24T02:10:29;9.90;99.90
24902;DHT22;31328;51.402;0.016;2023-04-24T02:12:55;9.90;99.90
24902;DHT22;31328;51.402;0.016;2023-04-24T02:15:24;9.80;99.90
24902;DHT22;31328;51.402;0.016;2023-04-24T02:17:50;9.80;99.90
24902;DHT22;31328;51.402;0.016;2023-04-24T02:20:16;9.80;99.90
24902;DHT22;31328;51.402;0.016;2023-04-24T02:22:43;9.80;99.90
24902;DHT22;31328;51.402;0.016;2023-04-24T02:25:10;9.80;99.90
24902;DHT22;31328;51.402;0.016;2023-04-24T02:27:36;9.80;99.90
24902;DHT22;31328;51.402;0.016;2023-04-24T02:30:06;9.70;99.90
24902;DHT22;31328;51.402;0.016;2023-04-24T02:32:33;9.70;99.90
24902;DHT22;31328;51.402;0.016;2023-04-24T02:35:00;9.80;99.90
24902;DHT22;31328;51.402;0.016;2023-04-24T02:37:26;9.70;99.90
24902;DHT22;31328;51.402;0.016;2023-04-24T02:39:52;9.70;99.90
24902;DHT22;31328;51.402;0.016;2023-04-24T02:42:18;9.70;99.90
24902;DHT22;31328;51.402;0.016;2023-04-24T02:44:45;9.70;99.90
24902;DHT22;31328;51.402;0.016;2023-04-24T02:47:11;9.70;99.90
24902;DHT22;31328;51.402;0.016;2023-04-24T02:49:37;9.70;99.90
24902;DHT22;31328;51.402;0.016;2023-04-24T02:52:03;9.70;99.90
24902;DHT22;31328;51.402;0.016;2023-04-24T02:54:30;9.70;99.90
24902;DHT22;31328;51.402;0.016;2023-04-24T02:56:56;9.70;99.90
24902;DHT22;31328;51.402;0.016;2023-04-24T02:59:22;9.70;99.90
24902;DHT22;31328;51.402;0.016;2023-04-24T03:01:49;9.70;99.90
24902;DHT22;31328;51.402;0.016;2023-04-24T03:04:15;9.70;99.90
24902;DHT22;31328;51.402;0.016;2023-04-24T03:06:41;9.70;99.90
24902;DHT22;31328;51.402;0.016;2023-04-24T03:09:08;9.70;99.90
24902;DHT22;31328;51.402;0.016;2023-04-24T03:11:34;9.70;99.90
24902;DHT22;31328;51.402;0.016;2023-04-24T03:14:00;9.70;99.90
24902;DHT22;31328;51.402;0.016;2023-04-24T03:16:26;9.70;99.90
24902;DHT22;31328;51.402;0.016;2023-04-24T03:18:55;9.70;99.90
24902;DHT22;31328;51.402;0.016;2023-04-24T03:21:57;9.60;99.90
24902;DHT22;31328;51.402;0.016;2023-04-24T03:24:24;9.60;99.90
24902;DHT22;31328;51.402;0.016;2023-04-24T03:26:51;9.60;99.90
24902;DHT22;31328;51.402;0.016;2023-04-24T03:29:36;9.60;99.90
24902;DHT22;31328;51.402;0.016;2023-04-24T03:32:03;9.60;99.90
24902;DHT22;31328;51.402;0.016;2023-04-24T03:34:30;9.60;99.90
24902;DHT22;31328;51.402;0.016;2023-04-24T03:36:57;9.60;99.90
24902;DHT22;31328;51.402;0.016;2023-04-24T03:39:24;9.60;99.90
24902;DHT22;31328;51.402;0.016;2023-04-24T03:41:54;9.50;99.90
24902;DHT22;31328;51.402;0.016;2023-04-24T03:44:25;9.50;99.90
24902;DHT22;31328;51.402;0.016;2023-04-24T03:46:52;9.50;99.90
24902;DHT22;31328;51.402;0.016;2023-04-24T03:49:21;9.50;99.90
24902;DHT22;31328;51.402;0.016;2023-04-24T03:51:48;9.50;99.90
24902;DHT22;31328;51.402;0.016;2023-04-24T03:54:22;9.50;99.90
24902;DHT22;31328;51.402;0.016;2023-04-24T03:56:49;9.50;99.90
24902;DHT22;31328;51.402;0.016;2023-04-24T03:59:16;9.50;99.90
24902;DHT22;31328;51.402;0.016;2023-04-24T04:01:47;9.50;99.90
24902;DHT22;31328;51.402;0.016;2023-04-24T04:04:16;9.50;99.90
24902;DHT22;31328;51.402;0.016;2023-04-24T04:06:43;9.50;99.90
24902;DHT22;31328;51.402;0.016;2023-04-24T04:09:10;9.50;99.90
24902;DHT22;31328;51.402;0.016;2023-04-24T04:11:36;9.50;99.90
24902;DHT22;31328;51.402;0.016;2023-04-24T04:14:03;9.50;99.90
24902;DHT22;31328;51.402;0.016;2023-04-24T04:16:31;9.50;99.90
24902;DHT22;31328;51.402;0.016;2023-04-24T04:19:02;9.50;99.90
24902;DHT22;31328;51.402;0.016;2023-04-24T04:21:29;9.50;99.90
24902;DHT22;31328;51.402;0.016;2023-04-24T04:24:06;9.50;99.90
24902;DHT22;31328;51.402;0.016;2023-04-24T04:26:37;9.50;99.90
24902;DHT22;31328;51.402;0.016;2023-04-24T04:29:07;9.50;99.90
24902;DHT22;31328;51.402;0.016;2023-04-24T04:31:36;9.50;99.90
24902;DHT22;31328;51.402;0.016;2023-04-24T04:34:07;9.50;99.90
24902;DHT22;31328;51.402;0.016;2023-04-24T04:36:34;9.50;99.90
24902;DHT22;31328;51.402;0.016;2023-04-24T04:39:09;9.50;99.90
24902;DHT22;31328;51.402;0.016;2023-04-24T04:41:50;9.40;99.90
24902;DHT22;31328;51.402;0.016;2023-04-24T04:44:19;9.40;99.90
24902;DHT22;31328;51.402;0.016;2023-04-24T04:46:45;9.40;99.90
24902;DHT22;31328;51.402;0.016;2023-04-24T04:49:30;9.40;99.90
24902;DHT22;31328;51.402;0.016;2023-04-24T04:51:57;9.40;99.90
24902;DHT22;31328;51.402;0.016;2023-04-24T04:54:25;9.30;99.90
24902;DHT22;31328;51.402;0.016;2023-04-24T04:56:52;9.30;99.90
24902;DHT22;31328;51.402;0.016;2023-04-24T04:59:19;9.30;99.90
24902;DHT22;31328;51.402;0.016;2023-04-24T05:01:47;9.30;99.90
24902;DHT22;31328;51.402;0.016;2023-04-24T05:04:15;9.30;99.90
24902;DHT22;31328;51.402;0.016;2023-04-24T05:06:41;9.30;99.90
24902;DHT22;31328;51.402;0.016;2023-04-24T05:09:08;9.30;99.90
24902;DHT22;31328;51.402;0.016;2023-04-24T05:12:00;9.30;99.90
24902;DHT22;31328;51.402;0.016;2023-04-24T05:14:30;9.30;99.90
24902;DHT22;31328;51.402;0.016;2023-04-24T05:16:56;9.30;99.90
24902;DHT22;31328;51.402;0.016;2023-04-24T05:19:25;9.30;99.90
24902;DHT22;31328;51.402;0.016;2023-04-24T05:21:52;9.30;99.90
24902;DHT22;31328;51.402;0.016;2023-04-24T05:24:18;9.40;99.90
24902;DHT22;31328;51.402;0.016;2023-04-24T05:26:54;9.40;99.90
24902;DHT22;31328;51.402;0.016;2023-04-24T05:29:25;9.40;99.90
24902;DHT22;31328;51.402;0.016;2023-04-24T05:31:53;9.40;99.90
24902;DHT22;31328;51.402;0.016;2023-04-24T05:34:20;9.40;99.90
24902;DHT22;31328;51.402;0.016;2023-04-24T05:36:50;9.40;99.90
24902;DHT22;31328;51.402;0.016;2023-04-24T05:39:17;9.40;99.90
24902;DHT22;31328;51.402;0.016;2023-04-24T05:41:43;9.40;99.90
24902;DHT22;31328;51.402;0.016;2023-04-24T05:44:10;9.40;99.90
24902;DHT22;31328;51.402;0.016;2023-04-24T05:46:36;9.40;99.90
24902;DHT22;31328;51.402;0.016;2023-04-24T05:49:03;9.40;99.90
24902;DHT22;31328;51.402;0.016;2023-04-24T05:51:31;9.40;99.90
24902;DHT22;31328;51.402;0.016;2023-04-24T05:53:58;9.40;99.90
24902;DHT22;31328;51.402;0.016;2023-04-24T05:56:26;9.50;99.90
24902;DHT22;31328;51.402;0.016;2023-04-24T05:58:52;9.40;99.90
24902;DHT22;31328;51.402;0.016;2023-04-24T06:01:19;9.50;99.90
24902;DHT22;31328;51.402;0.016;2023-04-24T06:03:52;9.50;99.90
24902;DHT22;31328;51.402;0.016;2023-04-24T06:06:19;9.50;99.90
24902;DHT22;31328;51.402;0.016;2023-04-24T06:08:45;9.50;99.90
24902;DHT22;31328;51.402;0.016;2023-04-24T06:11:13;9.50;99.90
24902;DHT22;31328;51.402;0.016;2023-04-24T06:13:39;9.50;99.90
24902;DHT22;31328;51.402;0.016;2023-04-24T06:16:24;9.50;99.90
24902;DHT22;31328;51.402;0.016;2023-04-24T06:18:58;9.60;99.90
24902;DHT22;31328;51.402;0.016;2023-04-24T06:21:25;9.60;99.90
24902;DHT22;31328;51.402;0.016;2023-04-24T06:23:51;9.60;99.90
24902;DHT22;31328;51.402;0.016;2023-04-24T06:26:18;9.60;99.90
24902;DHT22;31328;51.402;0.016;2023-04-24T06:28:44;9.60;99.90
24902;DHT22;31328;51.402;0.016;2023-04-24T06:31:11;9.50;99.90
24902;DHT22;31328;51.402;0.016;2023-04-24T06:33:38;9.50;99.90
24902;DHT22;31328;51.402;0.016;2023-04-24T06:36:04;9.60;99.90
24902;DHT22;31328;51.402;0.016;2023-04-24T06:38:31;9.60;99.90
24902;DHT22;31328;51.402;0.016;2023-04-24T06:40:57;9.60;99.90
24902;DHT22;31328;51.402;0.016;2023-04-24T06:43:23;9.60;99.90
24902;DHT22;31328;51.402;0.016;2023-04-24T06:45:50;9.70;99.90
24902;DHT22;31328;51.402;0.016;2023-04-24T06:48:16;9.60;99.90
24902;DHT22;31328;51.402;0.016;2023-04-24T06:50:42;9.60;99.90
24902;DHT22;31328;51.402;0.016;2023-04-24T06:53:09;9.60;99.90
24902;DHT22;31328;51.402;0.016;2023-04-24T06:55:37;9.70;99.90
24902;DHT22;31328;51.402;0.016;2023-04-24T06:58:03;9.70;99.90
24902;DHT22;31328;51.402;0.016;2023-04-24T07:00:29;9.80;99.90
24902;DHT22;31328;51.402;0.016;2023-04-24T07:02:56;9.80;99.90
24902;DHT22;31328;51.402;0.016;2023-04-24T07:05:23;9.90;99.90
24902;DHT22;31328;51.402;0.016;2023-04-24T07:07:49;9.90;99.90
24902;DHT22;31328;51.402;0.016;2023-04-24T07:10:17;10.00;99.90
24902;DHT22;31328;51.402;0.016;2023-04-24T07:12:44;10.00;99.90
24902;DHT22;31328;51.402;0.016;2023-04-24T07:15:10;10.00;99.90
24902;DHT22;31328;51.402;0.016;2023-04-24T07:17:37;10.20;99.90
24902;DHT22;31328;51.402;0.016;2023-04-24T07:20:05;10.50;99.90
24902;DHT22;31328;51.402;0.016;2023-04-24T07:22:33;11.00;99.90
24902;DHT22;31328;51.402;0.016;2023-04-24T07:25:00;11.60;99.90
24902;DHT22;31328;51.402;0.016;2023-04-24T07:27:27;12.00;99.90
24902;DHT22;31328;51.402;0.016;2023-04-24T07:29:53;12.20;99.90
24902;DHT22;31328;51.402;0.016;2023-04-24T07:32:20;12.30;99.90
24902;DHT22;31328;51.402;0.016;2023-04-24T07:34:46;12.50;99.90
24902;DHT22;31328;51.402;0.016;2023-04-24T07:37:12;12.50;99.90
24902;DHT22;31328;51.402;0.016;2023-04-24T07:39:38;12.50;99.90
24902;DHT22;31328;51.402;0.016;2023-04-24T07:42:05;12.50;99.90
24902;DHT22;31328;51.402;0.016;2023-04-24T07:44:31;12.40;99.90
24902;DHT22;31328;51.402;0.016;2023-04-24T07:46:58;12.30;99.90
24902;DHT22;31328;51.402;0.016;2023-04-24T07:49:24;12.20;99.90
24902;DHT22;31328;51.402;0.016;2023-04-24T07:51:50;12.10;99.90
24902;DHT22;31328;51.402;0.016;2023-04-24T07:54:17;12.00;99.90
24902;DHT22;31328;51.402;0.016;2023-04-24T07:56:43;11.90;99.90
24902;DHT22;31328;51.402;0.016;2023-04-24T07:59:10;11.80;99.80
24902;DHT22;31328;51.402;0.016;2023-04-24T08:01:37;11.70;99.70
24902;DHT22;31328;51.402;0.016;2023-04-24T08:04:04;11.70;99.80
24902;DHT22;31328;51.402;0.016;2023-04-24T08:06:30;11.70;99.80
24902;DHT22;31328;51.402;0.016;2023-04-24T08:08:58;11.70;99.70
24902;DHT22;31328;51.402;0.016;2023-04-24T08:11:25;11.70;99.80
24902;DHT22;31328;51.402;0.016;2023-04-24T08:13:51;11.80;99.80
24902;DHT22;31328;51.402;0.016;2023-04-24T08:16:18;11.80;99.20
24902;DHT22;31328;51.402;0.016;2023-04-24T08:18:44;11.90;99.10
24902;DHT22;31328;51.402;0.016;2023-04-24T08:21:10;11.90;99.10
24902;DHT22;31328;51.402;0.016;2023-04-24T08:23:38;12.00;98.80
24902;DHT22;31328;51.402;0.016;2023-04-24T08:26:05;12.00;98.80
24902;DHT22;31328;51.402;0.016;2023-04-24T08:28:33;12.10;98.70
24902;DHT22;31328;51.402;0.016;2023-04-24T08:30:59;12.20;98.60
24902;DHT22;31328;51.402;0.016;2023-04-24T08:33:25;12.30;98.60
24902;DHT22;31328;51.402;0.016;2023-04-24T08:35:52;12.40;98.50
24902;DHT22;31328;51.402;0.016;2023-04-24T08:38:19;12.50;98.30
24902;DHT22;31328;51.402;0.016;2023-04-24T08:40:46;12.50;98.20
24902;DHT22;31328;51.402;0.016;2023-04-24T08:43:16;12.60;98.30
24902;DHT22;31328;51.402;0.016;2023-04-24T08:45:42;12.60;98.30
24902;DHT22;31328;51.402;0.016;2023-04-24T08:48:09;12.70;98.00
24902;DHT22;31328;51.402;0.016;2023-04-24T08:50:37;12.80;97.80
24902;DHT22;31328;51.402;0.016;2023-04-24T08:53:04;12.80;97.60
24902;DHT22;31328;51.402;0.016;2023-04-24T08:55:33;12.90;97.60
24902;DHT22;31328;51.402;0.016;2023-04-24T08:58:00;12.90;97.60
24902;DHT22;31328;51.402;0.016;2023-04-24T09:00:28;12.90;97.70
24902;DHT22;31328;51.402;0.016;2023-04-24T09:02:55;12.90;97.70
24902;DHT22;31328;51.402;0.016;2023-04-24T09:05:22;13.00;97.50
24902;DHT22;31328;51.402;0.016;2023-04-24T09:07:53;13.00;97.40
24902;DHT22;31328;51.402;0.016;2023-04-24T09:10:22;13.00;96.80
24902;DHT22;31328;51.402;0.016;2023-04-24T09:12:50;13.10;96.90
24902;DHT22;31328;51.402;0.016;2023-04-24T09:15:18;13.10;97.20
24902;DHT22;31328;51.402;0.016;2023-04-24T09:17:46;13.10;96.50
24902;DHT22;31328;51.402;0.016;2023-04-24T09:20:13;13.10;96.50
24902;DHT22;31328;51.402;0.016;2023-04-24T09:22:40;13.10;96.70
24902;DHT22;31328;51.402;0.016;2023-04-24T09:25:08;13.20;96.90
24902;DHT22;31328;51.402;0.016;2023-04-24T09:27:35;13.10;96.70
24902;DHT22;31328;51.402;0.016;2023-04-24T09:30:02;13.20;96.50
24902;DHT22;31328;51.402;0.016;2023-04-24T09:32:28;13.10;96.40
24902;DHT22;31328;51.402;0.016;2023-04-24T09:35:25;13.10;96.40
24902;DHT22;31328;51.402;0.016;2023-04-24T09:37:51;13.10;96.20
24902;DHT22;31328;51.402;0.016;2023-04-24T09:40:19;13.10;96.40
24902;DHT22;31328;51.402;0.016;2023-04-24T09:42:54;13.20;96.50
24902;DHT22;31328;51.402;0.016;2023-04-24T09:45:21;13.40;96.40
24902;DHT22;31328;51.402;0.016;2023-04-24T09:47:51;13.60;96.30
24902;DHT22;31328;51.402;0.016;2023-04-24T09:50:19;13.70;96.00
24902;DHT22;31328;51.402;0.016;2023-04-24T09:52:56;13.90;95.60
24902;DHT22;31328;51.402;0.016;2023-04-24T09:55:22;13.90;95.50
24902;DHT22;31328;51.402;0.016;2023-04-24T10:00:26;14.10;95.30
24902;DHT22;31328;51.402;0.016;2023-04-24T10:03:02;14.30;95.20
24902;DHT22;31328;51.402;0.016;2023-04-24T10:05:33;14.40;95.00
24902;DHT22;31328;51.402;0.016;2023-04-24T10:08:02;14.50;94.90
24902;DHT22;31328;51.402;0.016;2023-04-24T10:10:30;14.50;94.60
24902;DHT22;31328;51.402;0.016;2023-04-24T10:12:56;14.60;94.50
24902;DHT22;31328;51.402;0.016;2023-04-24T10:15:23;14.50;94.60
24902;DHT22;31328;51.402;0.016;2023-04-24T10:17:51;14.40;94.60
24902;DHT22;31328;51.402;0.016;2023-04-24T10:20:22;14.40;94.50
24902;DHT22;31328;51.402;0.016;2023-04-24T10:22:50;14.20;94.40
24902;DHT22;31328;51.402;0.016;2023-04-24T10:25:20;14.10;94.50
24902;DHT22;31328;51.402;0.016;2023-04-24T10:27:48;14.10;94.60
24902;DHT22;31328;51.402;0.016;2023-04-24T10:30:16;14.00;94.40
24902;DHT22;31328;51.402;0.016;2023-04-24T10:32:43;13.90;94.40
24902;DHT22;31328;51.402;0.016;2023-04-24T10:35:10;13.90;94.60
24902;DHT22;31328;51.402;0.016;2023-04-24T10:37:40;13.90;94.60
24902;DHT22;31328;51.402;0.016;2023-04-24T10:40:09;13.90;94.40
24902;DHT22;31328;51.402;0.016;2023-04-24T10:42:40;13.90;94.30
24902;DHT22;31328;51.402;0.016;2023-04-24T10:45:19;13.90;94.40
24902;DHT22;31328;51.402;0.016;2023-04-24T10:47:52;13.90;94.50
24902;DHT22;31328;51.402;0.016;2023-04-24T10:50:18;13.90;94.50
24902;DHT22;31328;51.402;0.016;2023-04-24T10:52:46;13.90;94.30
24902;DHT22;31328;51.402;0.016;2023-04-24T10:55:13;13.90;94.30
24902;DHT22;31328;51.402;0.016;2023-04-24T10:58:03;13.90;94.40
24902;DHT22;31328;51.402;0.016;2023-04-24T11:00:30;13.90;94.40
24902;DHT22;31328;51.402;0.016;2023-04-24T11:02:57;13.80;94.10
24902;DHT22;31328;51.402;0.016;2023-04-24T11:05:50;13.80;94.20
24902;DHT22;31328;51.402;0.016;2023-04-24T11:08:47;13.80;94.20
24902;DHT22;31328;51.402;0.016;2023-04-24T11:11:17;13.70;94.20
24902;DHT22;31328;51.402;0.016;2023-04-24T11:18:59;13.70;94.30
24902;DHT22;31328;51.402;0.016;2023-04-24T11:21:44;13.70;94.60
24902;DHT22;31328;51.402;0.016;2023-04-24T11:27:18;13.70;94.60
24902;DHT22;31328;51.402;0.016;2023-04-24T11:29:58;13.80;94.40
24902;DHT22;31328;51.402;0.016;2023-04-24T11:35:12;13.90;94.10
24902;DHT22;31328;51.402;0.016;2023-04-24T11:37:41;14.00;93.90
24902;DHT22;31328;51.402;0.016;2023-04-24T11:40:10;14.00;94.00
24902;DHT22;31328;51.402;0.016;2023-04-24T11:42:41;14.10;93.60
24902;DHT22;31328;51.402;0.016;2023-04-24T11:45:17;14.20;93.60
24902;DHT22;31328;51.402;0.016;2023-04-24T11:47:44;14.30;93.70
24902;DHT22;31328;51.402;0.016;2023-04-24T11:50:13;14.40;93.60
24902;DHT22;31328;51.402;0.016;2023-04-24T11:52:41;14.50;93.50
24902;DHT22;31328;51.402;0.016;2023-04-24T11:57:51;14.70;92.90
24902;DHT22;31328;51.402;0.016;2023-04-24T12:00:19;14.70;93.00
24902;DHT22;31328;51.402;0.016;2023-04-24T12:02:45;14.70;92.80
24902;DHT22;31328;51.402;0.016;2023-04-24T12:05:23;14.70;92.70
24902;DHT22;31328;51.402;0.016;2023-04-24T12:07:49;14.70;92.90
24902;DHT22;31328;51.402;0.016;2023-04-24T12:10:24;14.70;93.00
24902;DHT22;31328;51.402;0.016;2023-04-24T12:12:51;14.70;93.00
24902;DHT22;31328;51.402;0.016;2023-04-24T12:15:19;14.90;93.00
24902;DHT22;31328;51.402;0.016;2023-04-24T12:17:47;14.90;92.50
24902;DHT22;31328;51.402;0.016;2023-04-24T12:20:14;15.00;92.60
24902;DHT22;31328;51.402;0.016;2023-04-24T12:25:19;15.20;92.00
24902;DHT22;31328;51.402;0.016;2023-04-24T12:27:50;15.30;92.10
24902;DHT22;31328;51.402;0.016;2023-04-24T12:30:18;15.30;92.40
24902;DHT22;31328;51.402;0.016;2023-04-24T12:32:47;15.50;92.00
24902;DHT22;31328;51.402;0.016;2023-04-24T12:35:19;15.50;91.80
24902;DHT22;31328;51.402;0.016;2023-04-24T12:37:46;15.50;91.60
24902;DHT22;31328;51.402;0.016;2023-04-24T12:40:13;15.50;91.40
24902;DHT22;31328;51.402;0.016;2023-04-24T12:45:10;15.30;91.40
24902;DHT22;31328;51.402;0.016;2023-04-24T12:47:39;15.20;91.30
24902;DHT22;31328;51.402;0.016;2023-04-24T12:50:08;15.00;91.70
24902;DHT22;31328;51.402;0.016;2023-04-24T12:52:34;15.00;91.40
24902;DHT22;31328;51.402;0.016;2023-04-24T12:55:01;15.00;91.50
24902;DHT22;31328;51.402;0.016;2023-04-24T12:57:29;14.90;91.30
24902;DHT22;31328;51.402;0.016;2023-04-24T12:59:57;14.90;91.10
24902;DHT22;31328;51.402;0.016;2023-04-24T13:02:24;14.90;90.90
24902;DHT22;31328;51.402;0.016;2023-04-24T13:04:51;14.70;90.90
24902;DHT22;31328;51.402;0.016;2023-04-24T13:07:17;14.70;91.00
24902;DHT22;31328;51.402;0.016;2023-04-24T13:09:44;14.60;91.10
24902;DHT22;31328;51.402;0.016;2023-04-24T13:12:11;14.50;91.10
24902;DHT22;31328;51.402;0.016;2023-04-24T13:14:38;14.40;91.20
24902;DHT22;31328;51.402;0.016;2023-04-24T13:17:04;14.30;91.30
24902;DHT22;31328;51.402;0.016;2023-04-24T13:19:36;14.40;91.50
24902;DHT22;31328;51.402;0.016;2023-04-24T13:22:03;14.40;91.50
24902;DHT22;31328;51.402;0.016;2023-04-24T13:24:30;14.40;91.40
24902;DHT22;31328;51.402;0.016;2023-04-24T13:26:57;14.50;91.20
24902;DHT22;31328;51.402;0.016;2023-04-24T13:29:24;14.50;91.40
24902;DHT22;31328;51.402;0.016;2023-04-24T13:31:51;14.50;91.30
24902;DHT22;31328;51.402;0.016;2023-04-24T13:34:17;14.50;91.00
24902;DHT22;31328;51.402;0.016;2023-04-24T13:36:44;14.60;90.80
24902;DHT22;31328;51.402;0.016;2023-04-24T13:39:10;14.60;90.30
24902;DHT22;31328;51.402;0.016;2023-04-24T13:41:37;14.50;90.60
24902;DHT22;31328;51.402;0.016;2023-04-24T13:44:04;14.60;90.70
24902;DHT22;31328;51.402;0.016;2023-04-24T13:46:30;14.70;90.80
24902;DHT22;31328;51.402;0.016;2023-04-24T13:48:57;14.70;90.60
24902;DHT22;31328;51.402;0.016;2023-04-24T13:51:25;14.80;90.60
24902;DHT22;31328;51.402;0.016;2023-04-24T13:53:53;14.90;90.40
24902;DHT22;31328;51.402;0.016;2023-04-24T13:56:20;15.00;90.30
24902;DHT22;31328;51.402;0.016;2023-04-24T13:58:48;15.10;90.10
24902;DHT22;31328;51.402;0.016;2023-04-24T14:01:15;15.20;89.50
24902;DHT22;31328;51.402;0.016;2023-04-24T14:03:42;15.30;89.60
24902;DHT22;31328;51.402;0.016;2023-04-24T14:06:09;15.40;89.20
24902;DHT22;31328;51.402;0.016;2023-04-24T14:08:36;15.40;89.00
24902;DHT22;31328;51.402;0.016;2023-04-24T14:11:02;15.30;89.10
24902;DHT22;31328;51.402;0.016;2023-04-24T14:13:29;15.30;88.60
24902;DHT22;31328;51.402;0.016;2023-04-24T14:15:55;15.20;88.60
24902;DHT22;31328;51.402;0.016;2023-04-24T14:18:22;15.20;89.10
24902;DHT22;31328;51.402;0.016;2023-04-24T14:20:48;15.10;89.30
24902;DHT22;31328;51.402;0.016;2023-04-24T14:23:14;15.00;88.50
24902;DHT22;31328;51.402;0.016;2023-04-24T14:25:41;14.90;87.90
24902;DHT22;31328;51.402;0.016;2023-04-24T14:28:07;14.90;88.60
24902;DHT22;31328;51.402;0.016;2023-04-24T14:30:33;14.90;88.50
24902;DHT22;31328;51.402;0.016;2023-04-24T14:32:59;14.90;88.40
24902;DHT22;31328;51.402;0.016;2023-04-24T14:35:26;14.90;88.60
24902;DHT22;31328;51.402;0.016;2023-04-24T14:37:54;14.90;88.20
24902;DHT22;31328;51.402;0.016;2023-04-24T14:40:21;14.90;88.20
24902;DHT22;31328;51.402;0.016;2023-04-24T14:42:47;14.90;88.50
24902;DHT22;31328;51.402;0.016;2023-04-24T14:45:13;15.00;88.20
24902;DHT22;31328;51.402;0.016;2023-04-24T14:47:39;15.00;87.70
24902;DHT22;31328;51.402;0.016;2023-04-24T14:50:07;15.00;87.60
24902;DHT22;31328;51.402;0.016;2023-04-24T14:52:34;15.10;87.40
24902;DHT22;31328;51.402;0.016;2023-04-24T14:55:01;15.10;87.60
24902;DHT22;31328;51.402;0.016;2023-04-24T14:57:28;15.10;86.90
24902;DHT22;31328;51.402;0.016;2023-04-24T14:59:54;15.00;87.10
24902;DHT22;31328;51.402;0.016;2023-04-24T15:02:20;15.00;86.70
24902;DHT22;31328;51.402;0.016;2023-04-24T15:04:47;14.90;86.70
24902;DHT22;31328;51.402;0.016;2023-04-24T15:07:13;14.80;86.50
24902;DHT22;31328;51.402;0.016;2023-04-24T15:09:39;14.80;87.20
24902;DHT22;31328;51.402;0.016;2023-04-24T15:12:06;14.70;87.10
24902;DHT22;31328;51.402;0.016;2023-04-24T15:14:32;14.70;87.30
24902;DHT22;31328;51.402;0.016;2023-04-24T15:16:59;14.60;86.90
24902;DHT22;31328;51.402;0.016;2023-04-24T15:19:25;14.60;86.50
24902;DHT22;31328;51.402;0.016;2023-04-24T15:21:51;14.50;86.60
24902;DHT22;31328;51.402;0.016;2023-04-24T15:24:18;14.40;86.70
24902;DHT22;31328;51.402;0.016;2023-04-24T15:26:44;14.30;87.40
24902;DHT22;31328;51.402;0.016;2023-04-24T15:29:10;14.20;87.80
24902;DHT22;31328;51.402;0.016;2023-04-24T15:31:37;14.20;87.80
24902;DHT22;31328;51.402;0.016;2023-04-24T15:34:06;14.10;87.80
24902;DHT22;31328;51.402;0.016;2023-04-24T15:36:32;13.80;88.50
24902;DHT22;31328;51.402;0.016;2023-04-24T15:39:02;13.60;89.80
24902;DHT22;31328;51.402;0.016;2023-04-24T15:41:29;13.40;90.40
24902;DHT22;31328;51.402;0.016;2023-04-24T15:43:55;13.00;91.20
24902;DHT22;31328;51.402;0.016;2023-04-24T15:46:21;12.70;92.20
24902;DHT22;31328;51.402;0.016;2023-04-24T15:48:48;12.40;93.20
24902;DHT22;31328;51.402;0.016;2023-04-24T15:51:15;12.10;93.80
24902;DHT22;31328;51.402;0.016;2023-04-24T15:53:41;11.80;94.70
24902;DHT22;31328;51.402;0.016;2023-04-24T15:56:08;11.70;95.20
24902;DHT22;31328;51.402;0.016;2023-04-24T15:58:35;11.50;95.70
24902;DHT22;31328;51.402;0.016;2023-04-24T16:01:01;11.30;96.30